sensor_id;sensor_type;location;lat;lon;timestamp;P1;durP1;ratioP1;P2;durP2;ratioP2
35326;SDS011;21436;52.348;20.928;2023-08-21T00:01:49;35.55;;;26.05;;
35326;SDS011;21436;52.348;20.928;2023-08-21T00:04:16;38.60;;;25.13;;
35326;SDS011;21436;52.348;20.928;2023-08-21T00:06:43;34.83;;;25.63;;
35326;SDS011;21436;52.348;20.928;2023-08-21T00:09:10;32.47;;;24.45;;
35326;SDS011;21436;52.348;20.928;2023-08-21T00:11:38;31.95;;;23.17;;
35326;SDS011;21436;52.348;20.928;2023-08-21T00:14:05;34.78;;;24.67;;
35326;SDS011;21436;52.348;20.928;2023-08-21T00:16:33;31.25;;;24.38;;
35326;SDS011;21436;52.348;20.928;2023-08-21T00:19:01;33.30;;;24.67;;
35326;SDS011;21436;52.348;20.928;2023-08-21T00:21:28;36.17;;;25.83;;
35326;SDS011;21436;52.348;20.928;2023-08-21T00:23:56;35.15;;;26.20;;
35326;SDS011;21436;52.348;20.928;2023-08-21T00:26:23;37.83;;;27.00;;
35326;SDS011;21436;52.348;20.928;2023-08-21T00:28:50;32.45;;;24.15;;
35326;SDS011;21436;52.348;20.928;2023-08-21T00:31:18;33.35;;;24.38;;
35326;SDS011;21436;52.348;20.928;2023-08-21T00:33:45;34.58;;;23.98;;
35326;SDS011;21436;52.348;20.928;2023-08-21T00:36:12;32.80;;;25.00;;
35326;SDS011;21436;52.348;20.928;2023-08-21T00:38:40;32.88;;;24.20;;
35326;SDS011;21436;52.348;20.928;2023-08-21T00:41:07;33.80;;;24.67;;
35326;SDS011;21436;52.348;20.928;2023-08-21T00:43:34;32.67;;;24.38;;
35326;SDS011;21436;52.348;20.928;2023-08-21T00:46:02;30.67;;;23.38;;
35326;SDS011;21436;52.348;20.928;2023-08-21T00:48:30;33.63;;;25.42;;
35326;SDS011;21436;52.348;20.928;2023-08-21T00:50:57;36.97;;;25.23;;
35326;SDS011;21436;52.348;20.928;2023-08-21T00:53:24;36.90;;;25.02;;
35326;SDS011;21436;52.348;20.928;2023-08-21T00:55:51;35.70;;;26.60;;
35326;SDS011;21436;52.348;20.928;2023-08-21T00:58:19;36.42;;;27.50;;
35326;SDS011;21436;52.348;20.928;2023-08-21T01:00:46;39.38;;;28.20;;
35326;SDS011;21436;52.348;20.928;2023-08-21T01:03:17;38.00;;;26.90;;
35326;SDS011;21436;52.348;20.928;2023-08-21T01:05:44;38.72;;;26.55;;
35326;SDS011;21436;52.348;20.928;2023-08-21T01:16:11;36.58;;;26.17;;
35326;SDS011;21436;52.348;20.928;2023-08-21T01:18:39;34.78;;;26.08;;
35326;SDS011;21436;52.348;20.928;2023-08-21T01:21:06;39.97;;;25.40;;
35326;SDS011;21436;52.348;20.928;2023-08-21T01:23:35;37.22;;;27.48;;
35326;SDS011;21436;52.348;20.928;2023-08-21T01:26:03;37.10;;;26.55;;
35326;SDS011;21436;52.348;20.928;2023-08-21T01:28:32;35.92;;;26.33;;
35326;SDS011;21436;52.348;20.928;2023-08-21T01:31:14;41.45;;;28.38;;
35326;SDS011;21436;52.348;20.928;2023-08-21T01:33:45;36.70;;;28.20;;
35326;SDS011;21436;52.348;20.928;2023-08-21T01:36:14;45.58;;;29.70;;
35326;SDS011;21436;52.348;20.928;2023-08-21T01:38:42;44.08;;;29.05;;
35326;SDS011;21436;52.348;20.928;2023-08-21T01:41:11;36.47;;;26.13;;
35326;SDS011;21436;52.348;20.928;2023-08-21T01:43:38;39.63;;;28.25;;
35326;SDS011;21436;52.348;20.928;2023-08-21T01:46:06;40.20;;;27.33;;
35326;SDS011;21436;52.348;20.928;2023-08-21T01:48:33;37.88;;;27.25;;
35326;SDS011;21436;52.348;20.928;2023-08-21T01:51:01;37.53;;;28.52;;
35326;SDS011;21436;52.348;20.928;2023-08-21T01:53:29;36.42;;;28.02;;
35326;SDS011;21436;52.348;20.928;2023-08-21T01:55:56;37.28;;;26.95;;
35326;SDS011;21436;52.348;20.928;2023-08-21T01:58:24;36.70;;;26.85;;
35326;SDS011;21436;52.348;20.928;2023-08-21T02:00:51;43.30;;;26.77;;
35326;SDS011;21436;52.348;20.928;2023-08-21T02:03:18;36.95;;;25.92;;
35326;SDS011;21436;52.348;20.928;2023-08-21T02:05:46;38.50;;;27.50;;
35326;SDS011;21436;52.348;20.928;2023-08-21T02:08:13;37.85;;;26.50;;
35326;SDS011;21436;52.348;20.928;2023-08-21T02:10:48;39.25;;;27.80;;
35326;SDS011;21436;52.348;20.928;2023-08-21T02:13:17;39.10;;;26.75;;
35326;SDS011;21436;52.348;20.928;2023-08-21T02:15:45;38.50;;;26.73;;
35326;SDS011;21436;52.348;20.928;2023-08-21T02:18:12;35.63;;;26.08;;
35326;SDS011;21436;52.348;20.928;2023-08-21T02:20:40;37.75;;;26.23;;
35326;SDS011;21436;52.348;20.928;2023-08-21T02:23:09;40.80;;;27.88;;
35326;SDS011;21436;52.348;20.928;2023-08-21T02:25:36;34.88;;;25.80;;
35326;SDS011;21436;52.348;20.928;2023-08-21T02:28:04;35.97;;;26.65;;
35326;SDS011;21436;52.348;20.928;2023-08-21T02:30:31;34.42;;;24.80;;
35326;SDS011;21436;52.348;20.928;2023-08-21T02:32:59;37.88;;;26.85;;
35326;SDS011;21436;52.348;20.928;2023-08-21T02:35:26;40.22;;;26.13;;
35326;SDS011;21436;52.348;20.928;2023-08-21T02:37:53;38.63;;;26.95;;
35326;SDS011;21436;52.348;20.928;2023-08-21T02:40:20;36.17;;;26.27;;
35326;SDS011;21436;52.348;20.928;2023-08-21T02:42:48;36.53;;;27.00;;
35326;SDS011;21436;52.348;20.928;2023-08-21T02:45:15;38.85;;;27.65;;
35326;SDS011;21436;52.348;20.928;2023-08-21T02:47:43;42.80;;;27.30;;
35326;SDS011;21436;52.348;20.928;2023-08-21T02:50:11;39.50;;;26.35;;
35326;SDS011;21436;52.348;20.928;2023-08-21T02:52:38;38.17;;;26.20;;
35326;SDS011;21436;52.348;20.928;2023-08-21T02:55:07;36.33;;;26.50;;
35326;SDS011;21436;52.348;20.928;2023-08-21T02:57:35;36.33;;;25.83;;
35326;SDS011;21436;52.348;20.928;2023-08-21T03:00:02;34.20;;;25.70;;
35326;SDS011;21436;52.348;20.928;2023-08-21T03:02:31;36.60;;;25.75;;
35326;SDS011;21436;52.348;20.928;2023-08-21T03:05:00;32.92;;;24.95;;
35326;SDS011;21436;52.348;20.928;2023-08-21T03:07:27;33.28;;;25.05;;
35326;SDS011;21436;52.348;20.928;2023-08-21T03:09:54;35.05;;;24.67;;
35326;SDS011;21436;52.348;20.928;2023-08-21T03:12:22;37.42;;;25.65;;
35326;SDS011;21436;52.348;20.928;2023-08-21T03:14:49;33.45;;;24.65;;
35326;SDS011;21436;52.348;20.928;2023-08-21T03:17:16;34.47;;;25.45;;
35326;SDS011;21436;52.348;20.928;2023-08-21T03:19:43;35.50;;;24.60;;
35326;SDS011;21436;52.348;20.928;2023-08-21T03:22:11;39.65;;;27.63;;
35326;SDS011;21436;52.348;20.928;2023-08-21T03:24:38;37.65;;;26.30;;
35326;SDS011;21436;52.348;20.928;2023-08-21T03:27:06;41.70;;;28.77;;
35326;SDS011;21436;52.348;20.928;2023-08-21T03:29:33;44.83;;;30.20;;
35326;SDS011;21436;52.348;20.928;2023-08-21T03:32:01;40.38;;;28.98;;
35326;SDS011;21436;52.348;20.928;2023-08-21T03:34:28;40.40;;;28.58;;
35326;SDS011;21436;52.348;20.928;2023-08-21T03:36:59;45.90;;;29.55;;
35326;SDS011;21436;52.348;20.928;2023-08-21T03:39:30;44.80;;;30.52;;
35326;SDS011;21436;52.348;20.928;2023-08-21T03:41:58;44.85;;;30.85;;
35326;SDS011;21436;52.348;20.928;2023-08-21T03:44:25;43.17;;;30.02;;
35326;SDS011;21436;52.348;20.928;2023-08-21T03:46:52;48.25;;;31.48;;
35326;SDS011;21436;52.348;20.928;2023-08-21T03:49:19;47.85;;;30.23;;
35326;SDS011;21436;52.348;20.928;2023-08-21T03:51:48;47.15;;;31.63;;
35326;SDS011;21436;52.348;20.928;2023-08-21T03:54:15;44.38;;;30.48;;
35326;SDS011;21436;52.348;20.928;2023-08-21T03:56:43;48.53;;;30.80;;
35326;SDS011;21436;52.348;20.928;2023-08-21T03:59:10;44.78;;;30.90;;
35326;SDS011;21436;52.348;20.928;2023-08-21T04:01:38;46.67;;;31.33;;
35326;SDS011;21436;52.348;20.928;2023-08-21T04:04:05;45.10;;;31.40;;
35326;SDS011;21436;52.348;20.928;2023-08-21T04:06:33;50.30;;;32.08;;
35326;SDS011;21436;52.348;20.928;2023-08-21T04:09:00;42.78;;;30.65;;
35326;SDS011;21436;52.348;20.928;2023-08-21T04:11:27;46.88;;;29.95;;
35326;SDS011;21436;52.348;20.928;2023-08-21T04:13:55;43.92;;;30.08;;
35326;SDS011;21436;52.348;20.928;2023-08-21T04:16:24;44.67;;;29.98;;
35326;SDS011;21436;52.348;20.928;2023-08-21T04:18:51;42.83;;;30.58;;
35326;SDS011;21436;52.348;20.928;2023-08-21T04:21:19;47.35;;;32.67;;
35326;SDS011;21436;52.348;20.928;2023-08-21T04:23:47;48.55;;;32.90;;
35326;SDS011;21436;52.348;20.928;2023-08-21T04:26:15;45.10;;;30.85;;
35326;SDS011;21436;52.348;20.928;2023-08-21T04:28:42;43.58;;;30.77;;
35326;SDS011;21436;52.348;20.928;2023-08-21T04:31:09;41.20;;;30.58;;
35326;SDS011;21436;52.348;20.928;2023-08-21T04:33:37;43.30;;;29.15;;
35326;SDS011;21436;52.348;20.928;2023-08-21T04:36:05;45.17;;;30.05;;
35326;SDS011;21436;52.348;20.928;2023-08-21T04:38:33;40.20;;;28.88;;
35326;SDS011;21436;52.348;20.928;2023-08-21T04:41:07;35.40;;;26.13;;
35326;SDS011;21436;52.348;20.928;2023-08-21T04:43:37;41.08;;;28.38;;
35326;SDS011;21436;52.348;20.928;2023-08-21T04:46:06;38.95;;;27.75;;
35326;SDS011;21436;52.348;20.928;2023-08-21T04:48:35;40.97;;;28.05;;
35326;SDS011;21436;52.348;20.928;2023-08-21T04:51:03;34.38;;;25.95;;
35326;SDS011;21436;52.348;20.928;2023-08-21T04:53:31;35.33;;;26.00;;
35326;SDS011;21436;52.348;20.928;2023-08-21T04:55:59;35.50;;;27.30;;
35326;SDS011;21436;52.348;20.928;2023-08-21T04:58:28;42.05;;;27.17;;
35326;SDS011;21436;52.348;20.928;2023-08-21T05:00:56;37.25;;;27.45;;
35326;SDS011;21436;52.348;20.928;2023-08-21T05:03:23;40.58;;;27.42;;
35326;SDS011;21436;52.348;20.928;2023-08-21T05:05:54;36.40;;;27.50;;
35326;SDS011;21436;52.348;20.928;2023-08-21T05:08:23;39.65;;;28.10;;
35326;SDS011;21436;52.348;20.928;2023-08-21T05:10:55;39.83;;;28.65;;
35326;SDS011;21436;52.348;20.928;2023-08-21T05:13:24;39.95;;;28.52;;
35326;SDS011;21436;52.348;20.928;2023-08-21T05:15:53;37.53;;;29.15;;
35326;SDS011;21436;52.348;20.928;2023-08-21T05:18:23;39.05;;;28.02;;
35326;SDS011;21436;52.348;20.928;2023-08-21T05:20:53;36.78;;;27.52;;
35326;SDS011;21436;52.348;20.928;2023-08-21T05:23:22;41.53;;;28.73;;
35326;SDS011;21436;52.348;20.928;2023-08-21T05:25:52;39.45;;;28.73;;
35326;SDS011;21436;52.348;20.928;2023-08-21T05:28:20;37.35;;;26.60;;
35326;SDS011;21436;52.348;20.928;2023-08-21T05:30:47;33.92;;;26.02;;
35326;SDS011;21436;52.348;20.928;2023-08-21T05:33:17;36.35;;;26.85;;
35326;SDS011;21436;52.348;20.928;2023-08-21T05:35:47;37.20;;;27.23;;
35326;SDS011;21436;52.348;20.928;2023-08-21T05:38:14;33.90;;;26.80;;
35326;SDS011;21436;52.348;20.928;2023-08-21T05:40:41;35.65;;;26.23;;
35326;SDS011;21436;52.348;20.928;2023-08-21T05:43:09;31.00;;;24.63;;
35326;SDS011;21436;52.348;20.928;2023-08-21T05:45:40;35.45;;;27.02;;
35326;SDS011;21436;52.348;20.928;2023-08-21T05:48:08;35.85;;;26.08;;
35326;SDS011;21436;52.348;20.928;2023-08-21T05:50:36;35.97;;;27.10;;
35326;SDS011;21436;52.348;20.928;2023-08-21T05:53:04;36.08;;;26.70;;
35326;SDS011;21436;52.348;20.928;2023-08-21T05:55:32;41.22;;;28.02;;
35326;SDS011;21436;52.348;20.928;2023-08-21T05:58:00;38.35;;;28.13;;
35326;SDS011;21436;52.348;20.928;2023-08-21T06:00:28;35.35;;;25.42;;
35326;SDS011;21436;52.348;20.928;2023-08-21T06:02:55;36.83;;;26.08;;
35326;SDS011;21436;52.348;20.928;2023-08-21T06:05:49;34.13;;;25.50;;
35326;SDS011;21436;52.348;20.928;2023-08-21T06:08:16;32.33;;;24.75;;
35326;SDS011;21436;52.348;20.928;2023-08-21T06:10:43;32.50;;;25.80;;
35326;SDS011;21436;52.348;20.928;2023-08-21T06:13:11;32.47;;;24.55;;
35326;SDS011;21436;52.348;20.928;2023-08-21T06:15:38;32.13;;;25.73;;
35326;SDS011;21436;52.348;20.928;2023-08-21T06:18:05;32.20;;;24.52;;
35326;SDS011;21436;52.348;20.928;2023-08-21T06:20:33;34.83;;;24.98;;
35326;SDS011;21436;52.348;20.928;2023-08-21T06:23:00;34.10;;;23.40;;
35326;SDS011;21436;52.348;20.928;2023-08-21T06:25:28;29.85;;;23.35;;
35326;SDS011;21436;52.348;20.928;2023-08-21T06:27:57;32.90;;;22.50;;
35326;SDS011;21436;52.348;20.928;2023-08-21T06:30:26;31.40;;;23.50;;
35326;SDS011;21436;52.348;20.928;2023-08-21T06:32:54;30.83;;;22.65;;
35326;SDS011;21436;52.348;20.928;2023-08-21T06:35:24;27.10;;;21.52;;
35326;SDS011;21436;52.348;20.928;2023-08-21T06:37:52;33.67;;;22.50;;
35326;SDS011;21436;52.348;20.928;2023-08-21T06:40:21;29.27;;;22.73;;
35326;SDS011;21436;52.348;20.928;2023-08-21T06:42:49;26.65;;;22.40;;
35326;SDS011;21436;52.348;20.928;2023-08-21T08:48:46;16.48;;;14.52;;
35326;SDS011;21436;52.348;20.928;2023-08-21T08:51:14;17.05;;;13.52;;
35326;SDS011;21436;52.348;20.928;2023-08-21T08:53:42;19.02;;;14.57;;
35326;SDS011;21436;52.348;20.928;2023-08-21T08:56:10;17.80;;;13.45;;
35326;SDS011;21436;52.348;20.928;2023-08-21T08:58:37;18.77;;;13.90;;
35326;SDS011;21436;52.348;20.928;2023-08-21T09:01:04;17.95;;;13.77;;
35326;SDS011;21436;52.348;20.928;2023-08-21T09:03:31;15.55;;;13.60;;
35326;SDS011;21436;52.348;20.928;2023-08-21T09:05:59;20.65;;;14.40;;
35326;SDS011;21436;52.348;20.928;2023-08-21T09:08:27;16.15;;;13.35;;
35326;SDS011;21436;52.348;20.928;2023-08-21T09:10:54;16.98;;;13.35;;
35326;SDS011;21436;52.348;20.928;2023-08-21T09:13:22;23.27;;;13.15;;
35326;SDS011;21436;52.348;20.928;2023-08-21T09:15:53;13.80;;;10.93;;
35326;SDS011;21436;52.348;20.928;2023-08-21T09:18:21;15.25;;;11.85;;
35326;SDS011;21436;52.348;20.928;2023-08-21T09:20:48;15.90;;;11.65;;
35326;SDS011;21436;52.348;20.928;2023-08-21T09:23:16;14.73;;;10.98;;
35326;SDS011;21436;52.348;20.928;2023-08-21T09:25:45;13.25;;;11.30;;
35326;SDS011;21436;52.348;20.928;2023-08-21T09:28:19;12.15;;;10.27;;
35326;SDS011;21436;52.348;20.928;2023-08-21T09:30:49;18.90;;;11.98;;
35326;SDS011;21436;52.348;20.928;2023-08-21T09:33:22;10.80;;;9.70;;
35326;SDS011;21436;52.348;20.928;2023-08-21T09:35:51;16.13;;;9.50;;
35326;SDS011;21436;52.348;20.928;2023-08-21T09:38:19;12.23;;;9.30;;
35326;SDS011;21436;52.348;20.928;2023-08-21T09:40:50;12.77;;;9.02;;
35326;SDS011;21436;52.348;20.928;2023-08-21T09:43:20;17.35;;;9.88;;
35326;SDS011;21436;52.348;20.928;2023-08-21T09:45:49;13.88;;;9.35;;
35326;SDS011;21436;52.348;20.928;2023-08-21T09:48:23;10.63;;;9.48;;
35326;SDS011;21436;52.348;20.928;2023-08-21T09:50:54;11.57;;;9.68;;
35326;SDS011;21436;52.348;20.928;2023-08-21T09:53:22;11.82;;;9.75;;
35326;SDS011;21436;52.348;20.928;2023-08-21T09:55:54;10.38;;;8.60;;
35326;SDS011;21436;52.348;20.928;2023-08-21T09:58:22;13.15;;;8.90;;
35326;SDS011;21436;52.348;20.928;2023-08-21T10:00:50;12.82;;;8.95;;
35326;SDS011;21436;52.348;20.928;2023-08-21T10:03:20;10.23;;;9.13;;
35326;SDS011;21436;52.348;20.928;2023-08-21T10:05:49;13.90;;;9.77;;
35326;SDS011;21436;52.348;20.928;2023-08-21T10:08:18;11.55;;;8.38;;
35326;SDS011;21436;52.348;20.928;2023-08-21T10:10:49;8.65;;;7.75;;
35326;SDS011;21436;52.348;20.928;2023-08-21T10:13:16;8.60;;;7.70;;
35326;SDS011;21436;52.348;20.928;2023-08-21T10:15:44;8.57;;;6.95;;
35326;SDS011;21436;52.348;20.928;2023-08-21T10:21:15;10.48;;;6.82;;
35326;SDS011;21436;52.348;20.928;2023-08-21T10:23:50;8.52;;;6.40;;
35326;SDS011;21436;52.348;20.928;2023-08-21T10:26:19;9.90;;;6.28;;
35326;SDS011;21436;52.348;20.928;2023-08-21T10:28:48;11.02;;;6.47;;
35326;SDS011;21436;52.348;20.928;2023-08-21T10:31:29;9.48;;;6.63;;
35326;SDS011;21436;52.348;20.928;2023-08-21T10:33:58;13.52;;;7.38;;
35326;SDS011;21436;52.348;20.928;2023-08-21T10:39:17;9.45;;;8.27;;
35326;SDS011;21436;52.348;20.928;2023-08-21T10:49:48;7.63;;;4.95;;
35326;SDS011;21436;52.348;20.928;2023-08-21T10:52:20;6.80;;;4.80;;
35326;SDS011;21436;52.348;20.928;2023-08-21T10:54:50;9.85;;;4.63;;
35326;SDS011;21436;52.348;20.928;2023-08-21T10:57:19;7.03;;;5.57;;
35326;SDS011;21436;52.348;20.928;2023-08-21T10:59:54;10.88;;;5.22;;
35326;SDS011;21436;52.348;20.928;2023-08-21T11:02:27;5.72;;;5.10;;
35326;SDS011;21436;52.348;20.928;2023-08-21T11:04:56;9.32;;;4.75;;
35326;SDS011;21436;52.348;20.928;2023-08-21T11:07:24;9.68;;;5.10;;
35326;SDS011;21436;52.348;20.928;2023-08-21T11:09:52;4.80;;;3.50;;
35326;SDS011;21436;52.348;20.928;2023-08-21T11:12:20;3.70;;;3.08;;
35326;SDS011;21436;52.348;20.928;2023-08-21T11:14:48;6.35;;;3.40;;
35326;SDS011;21436;52.348;20.928;2023-08-21T11:17:16;4.60;;;3.65;;
35326;SDS011;21436;52.348;20.928;2023-08-21T11:19:45;4.75;;;3.53;;
35326;SDS011;21436;52.348;20.928;2023-08-21T11:22:15;5.70;;;3.83;;
35326;SDS011;21436;52.348;20.928;2023-08-21T11:24:44;5.95;;;3.65;;
35326;SDS011;21436;52.348;20.928;2023-08-21T11:27:12;4.30;;;3.47;;
35326;SDS011;21436;52.348;20.928;2023-08-21T11:29:46;5.03;;;3.47;;
35326;SDS011;21436;52.348;20.928;2023-08-21T11:32:15;5.20;;;4.22;;
35326;SDS011;21436;52.348;20.928;2023-08-21T11:34:53;6.63;;;3.90;;
35326;SDS011;21436;52.348;20.928;2023-08-21T11:37:25;6.70;;;4.10;;
35326;SDS011;21436;52.348;20.928;2023-08-21T11:39:54;7.18;;;4.97;;
35326;SDS011;21436;52.348;20.928;2023-08-21T11:42:32;14.55;;;3.95;;
35326;SDS011;21436;52.348;20.928;2023-08-21T11:45:00;4.88;;;3.80;;
35326;SDS011;21436;52.348;20.928;2023-08-21T11:47:32;5.63;;;3.88;;
35326;SDS011;21436;52.348;20.928;2023-08-21T11:50:04;7.03;;;3.90;;
35326;SDS011;21436;52.348;20.928;2023-08-21T11:52:33;6.13;;;4.28;;
35326;SDS011;21436;52.348;20.928;2023-08-21T11:55:02;5.47;;;3.75;;
35326;SDS011;21436;52.348;20.928;2023-08-21T11:57:35;8.60;;;3.92;;
35326;SDS011;21436;52.348;20.928;2023-08-21T12:00:02;5.35;;;4.10;;
35326;SDS011;21436;52.348;20.928;2023-08-21T12:02:32;5.25;;;3.95;;
35326;SDS011;21436;52.348;20.928;2023-08-21T12:05:04;6.20;;;4.03;;
35326;SDS011;21436;52.348;20.928;2023-08-21T12:10:00;9.32;;;4.75;;
35326;SDS011;21436;52.348;20.928;2023-08-21T12:12:28;5.43;;;3.45;;
35326;SDS011;21436;52.348;20.928;2023-08-21T12:14:55;5.60;;;3.83;;
35326;SDS011;21436;52.348;20.928;2023-08-21T12:17:23;7.65;;;4.15;;
35326;SDS011;21436;52.348;20.928;2023-08-21T12:19:50;7.28;;;3.20;;
35326;SDS011;21436;52.348;20.928;2023-08-21T12:22:18;5.15;;;3.38;;
35326;SDS011;21436;52.348;20.928;2023-08-21T12:24:45;3.35;;;2.80;;
35326;SDS011;21436;52.348;20.928;2023-08-21T12:27:13;4.07;;;2.67;;
35326;SDS011;21436;52.348;20.928;2023-08-21T12:29:40;3.08;;;2.65;;
35326;SDS011;21436;52.348;20.928;2023-08-21T12:32:07;3.03;;;2.53;;
35326;SDS011;21436;52.348;20.928;2023-08-21T12:34:34;8.60;;;2.30;;
35326;SDS011;21436;52.348;20.928;2023-08-21T12:37:02;3.78;;;2.75;;
35326;SDS011;21436;52.348;20.928;2023-08-21T12:39:30;3.10;;;2.75;;
35326;SDS011;21436;52.348;20.928;2023-08-21T12:41:57;3.33;;;2.88;;
35326;SDS011;21436;52.348;20.928;2023-08-21T12:44:25;3.33;;;2.67;;
35326;SDS011;21436;52.348;20.928;2023-08-21T12:46:52;5.93;;;2.83;;
35326;SDS011;21436;52.348;20.928;2023-08-21T12:49:19;5.07;;;2.55;;
35326;SDS011;21436;52.348;20.928;2023-08-21T12:51:47;3.75;;;2.30;;
35326;SDS011;21436;52.348;20.928;2023-08-21T12:54:14;3.03;;;2.22;;
35326;SDS011;21436;52.348;20.928;2023-08-21T12:56:42;3.25;;;2.40;;
35326;SDS011;21436;52.348;20.928;2023-08-21T12:59:09;5.97;;;2.20;;
35326;SDS011;21436;52.348;20.928;2023-08-21T13:01:36;3.03;;;2.40;;
35326;SDS011;21436;52.348;20.928;2023-08-21T13:04:04;3.10;;;2.35;;
35326;SDS011;21436;52.348;20.928;2023-08-21T13:06:32;3.30;;;2.65;;
35326;SDS011;21436;52.348;20.928;2023-08-21T13:08:59;15.25;;;2.35;;
35326;SDS011;21436;52.348;20.928;2023-08-21T13:11:27;4.32;;;2.40;;
35326;SDS011;21436;52.348;20.928;2023-08-21T13:13:56;5.30;;;2.67;;
35326;SDS011;21436;52.348;20.928;2023-08-21T13:16:23;3.83;;;2.50;;
35326;SDS011;21436;52.348;20.928;2023-08-21T13:18:50;2.85;;;2.00;;
35326;SDS011;21436;52.348;20.928;2023-08-21T13:21:18;3.15;;;2.30;;
35326;SDS011;21436;52.348;20.928;2023-08-21T13:23:45;3.97;;;2.08;;
35326;SDS011;21436;52.348;20.928;2023-08-21T13:26:12;2.08;;;1.88;;
35326;SDS011;21436;52.348;20.928;2023-08-21T13:28:40;3.22;;;2.20;;
35326;SDS011;21436;52.348;20.928;2023-08-21T13:31:07;3.22;;;2.17;;
35326;SDS011;21436;52.348;20.928;2023-08-21T13:33:47;4.82;;;2.00;;
35326;SDS011;21436;52.348;20.928;2023-08-21T13:36:17;2.58;;;2.00;;
35326;SDS011;21436;52.348;20.928;2023-08-21T13:38:45;4.03;;;2.22;;
35326;SDS011;21436;52.348;20.928;2023-08-21T13:41:13;2.97;;;1.70;;
35326;SDS011;21436;52.348;20.928;2023-08-21T13:43:40;2.55;;;1.80;;
35326;SDS011;21436;52.348;20.928;2023-08-21T13:46:08;4.35;;;1.80;;
35326;SDS011;21436;52.348;20.928;2023-08-21T13:48:35;5.63;;;1.80;;
35326;SDS011;21436;52.348;20.928;2023-08-21T13:51:03;5.72;;;1.67;;
35326;SDS011;21436;52.348;20.928;2023-08-21T13:53:30;3.25;;;1.80;;
35326;SDS011;21436;52.348;20.928;2023-08-21T13:55:57;2.58;;;1.85;;
35326;SDS011;21436;52.348;20.928;2023-08-21T13:58:25;3.13;;;2.22;;
35326;SDS011;21436;52.348;20.928;2023-08-21T14:00:52;14.95;;;2.50;;
35326;SDS011;21436;52.348;20.928;2023-08-21T14:03:20;3.15;;;1.95;;
35326;SDS011;21436;52.348;20.928;2023-08-21T14:05:47;3.10;;;1.73;;
35326;SDS011;21436;52.348;20.928;2023-08-21T14:08:14;2.53;;;1.98;;
35326;SDS011;21436;52.348;20.928;2023-08-21T14:10:42;4.85;;;2.47;;
35326;SDS011;21436;52.348;20.928;2023-08-21T14:13:09;3.45;;;2.00;;
35326;SDS011;21436;52.348;20.928;2023-08-21T14:15:36;2.83;;;1.80;;
35326;SDS011;21436;52.348;20.928;2023-08-21T14:18:03;6.43;;;2.10;;
35326;SDS011;21436;52.348;20.928;2023-08-21T14:20:32;3.22;;;1.90;;
35326;SDS011;21436;52.348;20.928;2023-08-21T14:22:59;2.67;;;2.00;;
35326;SDS011;21436;52.348;20.928;2023-08-21T14:25:27;7.35;;;2.45;;
35326;SDS011;21436;52.348;20.928;2023-08-21T14:27:54;3.88;;;1.73;;
35326;SDS011;21436;52.348;20.928;2023-08-21T14:30:22;3.03;;;1.90;;
35326;SDS011;21436;52.348;20.928;2023-08-21T14:32:49;4.75;;;2.35;;
35326;SDS011;21436;52.348;20.928;2023-08-21T14:35:16;2.03;;;1.70;;
35326;SDS011;21436;52.348;20.928;2023-08-21T14:37:43;4.22;;;1.92;;
35326;SDS011;21436;52.348;20.928;2023-08-21T14:40:11;2.58;;;1.90;;
35326;SDS011;21436;52.348;20.928;2023-08-21T14:42:38;4.70;;;1.98;;
35326;SDS011;21436;52.348;20.928;2023-08-21T14:45:06;5.63;;;1.73;;
35326;SDS011;21436;52.348;20.928;2023-08-21T14:47:34;3.80;;;2.00;;
35326;SDS011;21436;52.348;20.928;2023-08-21T14:50:05;3.67;;;2.28;;
35326;SDS011;21436;52.348;20.928;2023-08-21T14:52:32;3.22;;;2.08;;
35326;SDS011;21436;52.348;20.928;2023-08-21T14:55:00;3.60;;;2.08;;
35326;SDS011;21436;52.348;20.928;2023-08-21T14:57:27;7.63;;;2.17;;
35326;SDS011;21436;52.348;20.928;2023-08-21T14:59:55;7.20;;;2.20;;
35326;SDS011;21436;52.348;20.928;2023-08-21T15:02:22;2.60;;;2.22;;
35326;SDS011;21436;52.348;20.928;2023-08-21T15:04:49;4.38;;;2.03;;
35326;SDS011;21436;52.348;20.928;2023-08-21T15:07:17;3.47;;;1.90;;
35326;SDS011;21436;52.348;20.928;2023-08-21T15:09:44;2.70;;;1.98;;
35326;SDS011;21436;52.348;20.928;2023-08-21T15:12:11;3.22;;;2.15;;
35326;SDS011;21436;52.348;20.928;2023-08-21T15:14:38;2.95;;;1.80;;
35326;SDS011;21436;52.348;20.928;2023-08-21T15:17:06;5.70;;;2.38;;
35326;SDS011;21436;52.348;20.928;2023-08-21T15:19:46;6.03;;;2.00;;
35326;SDS011;21436;52.348;20.928;2023-08-21T15:22:14;3.33;;;2.10;;
35326;SDS011;21436;52.348;20.928;2023-08-21T15:24:42;3.83;;;1.98;;
35326;SDS011;21436;52.348;20.928;2023-08-21T15:27:09;2.20;;;1.83;;
35326;SDS011;21436;52.348;20.928;2023-08-21T15:29:36;3.40;;;2.00;;
35326;SDS011;21436;52.348;20.928;2023-08-21T15:32:04;3.50;;;2.03;;
35326;SDS011;21436;52.348;20.928;2023-08-21T15:34:31;5.13;;;1.85;;
35326;SDS011;21436;52.348;20.928;2023-08-21T15:36:59;4.78;;;2.05;;
35326;SDS011;21436;52.348;20.928;2023-08-21T15:39:26;5.90;;;2.10;;
35326;SDS011;21436;52.348;20.928;2023-08-21T15:41:53;5.32;;;1.67;;
35326;SDS011;21436;52.348;20.928;2023-08-21T15:44:21;4.50;;;2.03;;
35326;SDS011;21436;52.348;20.928;2023-08-21T15:46:48;16.35;;;2.63;;
35326;SDS011;21436;52.348;20.928;2023-08-21T15:49:18;10.80;;;2.47;;
35326;SDS011;21436;52.348;20.928;2023-08-21T15:51:46;3.75;;;2.10;;
35326;SDS011;21436;52.348;20.928;2023-08-21T15:54:18;6.07;;;2.85;;
35326;SDS011;21436;52.348;20.928;2023-08-21T15:56:46;2.85;;;2.35;;
35326;SDS011;21436;52.348;20.928;2023-08-21T15:59:13;5.78;;;2.30;;
35326;SDS011;21436;52.348;20.928;2023-08-21T16:01:40;4.95;;;2.53;;
35326;SDS011;21436;52.348;20.928;2023-08-21T16:04:08;10.93;;;4.30;;
35326;SDS011;21436;52.348;20.928;2023-08-21T16:06:35;16.77;;;2.90;;
35326;SDS011;21436;52.348;20.928;2023-08-21T16:09:02;3.90;;;2.00;;
35326;SDS011;21436;52.348;20.928;2023-08-21T16:11:31;8.75;;;2.60;;
35326;SDS011;21436;52.348;20.928;2023-08-21T16:13:58;5.82;;;2.38;;
35326;SDS011;21436;52.348;20.928;2023-08-21T16:16:28;8.30;;;2.28;;
35326;SDS011;21436;52.348;20.928;2023-08-21T16:18:55;3.97;;;2.15;;
35326;SDS011;21436;52.348;20.928;2023-08-21T16:21:23;4.47;;;2.40;;
35326;SDS011;21436;52.348;20.928;2023-08-21T16:23:50;7.07;;;2.20;;
35326;SDS011;21436;52.348;20.928;2023-08-21T16:26:18;2.88;;;2.10;;
35326;SDS011;21436;52.348;20.928;2023-08-21T16:28:45;9.13;;;2.20;;
35326;SDS011;21436;52.348;20.928;2023-08-21T16:31:14;4.93;;;1.90;;
35326;SDS011;21436;52.348;20.928;2023-08-21T16:33:42;4.10;;;2.25;;
35326;SDS011;21436;52.348;20.928;2023-08-21T16:36:10;2.70;;;1.83;;
35326;SDS011;21436;52.348;20.928;2023-08-21T16:38:37;5.13;;;2.30;;
35326;SDS011;21436;52.348;20.928;2023-08-21T16:41:04;5.40;;;2.17;;
35326;SDS011;21436;52.348;20.928;2023-08-21T16:43:32;5.68;;;2.10;;
35326;SDS011;21436;52.348;20.928;2023-08-21T16:45:59;4.82;;;2.22;;
35326;SDS011;21436;52.348;20.928;2023-08-21T16:48:26;5.60;;;2.45;;
35326;SDS011;21436;52.348;20.928;2023-08-21T16:50:54;2.42;;;2.10;;
35326;SDS011;21436;52.348;20.928;2023-08-21T16:53:21;8.15;;;2.45;;
35326;SDS011;21436;52.348;20.928;2023-08-21T16:55:50;5.43;;;2.40;;